Strona główna
METAR-TAF:

METAR-TAF

Lotnisko :

Port lotniczy Sofia

Sofia, Bułgaria

Szerokość geograficzna: 42-39N, Długość geograficzna: 023-23E, wysokość: 586 m

Aktualna obserwacja pogody

Raport powstał 10 minut temu, godzina 12:00 UTC
Wiatr 10 kt od północny wschód, zmienny między północno-północny wschód i wschód
Temperatura 27°C
Wilgotność 39%
Ciśnienie 1015 hPa
Widzialność 10 km lub więcej
Rozproszone chmury na wysokości 6500 ft

METAR: LBSF 161200Z 04010KT 020V080 9999 SCT065 27/12 Q1015 NOSIG

czas: 15:10 (12:10 UTC)

Prognoza

Raport powstał 1 godzina i 10 minut temu, godzina 11:00 UTC
Prognoza ważna od 16 godzina 12 UTC do 17 godzina 12 UTC
Wiatr 10 kt od wschód
Widzialność 10 km lub więcej
Rozproszone chmury na wysokości 6000 ft
Stopniowe zmiany
od 16 godzina 18 UTC do 16 godzina 20 UTC
Wiatr 4 kt z kierunków zmiennych
Stopniowe zmiany
od 17 godzina 09 UTC do 17 godzina 11 UTC
Wiatr 10 kt od wschód

TAF: LBSF 161100Z 1612/1712 08010KT 9999 SCT060 BECMG 1618/1620 VRB04KT BECMG 1709/1711 08010KT

Obserwacja i prognoza pogody dla ponad 4000 lotnisk (raport METAR i TAF).

Dostępne stacje oznaczono żółtymi i czerwonymi punktami na mapie.

Najedź kursorem aby zobaczyć nazwę stacji.

Kliknij aby zobaczyć obserwacje i prognozy pogody.

Aby zmienić mapę: kliknij na zielony przycisk z czarnym krzyżykiem, aby powiększyć; na zielony przycisk z myślnikiem, aby pomniejszyć; na zielone strzałki, aby przejść do map sąsiednich.


METAR-TAF: